• Join FlightAware (Why Join?)
  • Login
  • US Flag 
10:02PM EST


 

Airport Tracker/Info


-or-


 

Live Flight TrackerFlight Track Log ✈ SKW6327 ✈ 01-May-2012 ✈ KLAX - KSAN

Flight Track Log - Related Links

Times and Time Zones

All times are in EDT time to prevent confusion due to time zone crossing. See the SKW6327 flight status page for this flight to view local times or setup timezone preferences in your user account.

Time Position Orientation Groundspeed Altitude Reporting Facility
EDT Latitude Longitude Course Direction KTS MPH feet Rate Location/Type
03:12PM 33.9252 -118.3919 280° West  Level FlightAware Approximate
03:12PM 33.9333 -118.4500 195° South 177 204 2,700  Level Southern California TRACON
03:13PM 33.8833 -118.4667 165° South 172 198 4,500 1,680 Climbing Southern California TRACON
03:14PM 33.8333 -118.4500 180° South 203 234 6,100 1,440 Climbing Southern California TRACON
03:15PM 33.7833 -118.4500 148° Southeast 215 247 7,500 1,380 Climbing Southern California TRACON
03:16PM 33.7167 -118.4000 140° Southeast 234 269 8,900 660 Climbing Southern California TRACON
03:17PM 33.6667 -118.3500 140° Southeast 273 314 8,900  Level Southern California TRACON
03:18PM 33.6000 -118.2833 116° Southeast 275 316 8,900  Level Southern California TRACON
03:19PM 33.5667 -118.2000 126° Southeast 275 316 8,900  Level Southern California TRACON
03:20PM 33.5167 -118.1167 121° Southeast 278 320 8,900  Level Southern California TRACON
03:21PM 33.4833 -118.0500 126° Southeast 276 318 8,900  Level Southern California TRACON
03:22PM 33.4333 -117.9667 121° Southeast 278 320 8,900  Level Southern California TRACON
03:23PM 33.4000 -117.9000 126° Southeast 280 322 8,900  Level Southern California TRACON
03:24PM 33.3500 -117.8167 116° Southeast 279 321 8,900  Level Southern California TRACON
03:25PM 33.3167 -117.7333 132° Southeast 277 319 8,900  Level Southern California TRACON
03:26PM 33.2667 -117.6667 148° Southeast 276 318 8,900  Level Southern California TRACON
03:27PM 33.2000 -117.6167 132° Southeast 271 312 8,900  Level Southern California TRACON
03:28PM 33.1500 -117.5500 148° Southeast 268 308 8,900  Level Southern California TRACON
03:29PM 33.0833 -117.5000 148° Southeast 266 306 8,900  Level Southern California TRACON
03:30PM 33.0167 -117.4500 132° Southeast 266 306 8,900  Level Southern California TRACON
03:31PM 32.9667 -117.3833 148° Southeast 265 305 8,900  Level Southern California TRACON
03:32PM 32.9000 -117.3333 121° Southeast 266 306 8,900  Level Southern California TRACON
03:33PM 32.8667 -117.2667 126° Southeast 266 306 8,900  Level Southern California TRACON
03:35PM 32.8167 -117.1833 103° East 282 325 8,900 -60 Level Southern California TRACON
03:36PM 32.8000 -117.1000 103° East 277 319 8,800 -360 Descending Southern California TRACON
03:37PM 32.7833 -117.0167 90° East 242 278 8,200 -660 Descending Southern California TRACON
03:38PM 32.7833 -116.9500 107° East 202 232 7,500 -900 Descending Southern California TRACON
03:39PM 32.7667 -116.8833 180° South 201 231 6,500 -1,200 Descending Southern California TRACON
03:40PM 32.7167 -116.8833 248° West 182 209 5,200 -1,320 Descending Southern California TRACON
03:41PM 32.7000 -116.9333 248° West 177 204 3,900 -840 Descending Southern California TRACON
03:42PM 32.6833 -116.9833 292° West 171 197 3,600 -720 Descending Southern California TRACON
03:43PM 32.7000 -117.0333 292° West 167 192 2,500 -1,140 Descending Southern California TRACON